sensor_id;sensor_type;location;lat;lon;timestamp;pressure;altitude;pressure_sealevel;temperature;humidity
49585;BME280;35491;49.142;9.210;2022-12-29T00:01:13;99344.31;;;10.73;57.38
49585;BME280;35491;49.142;9.210;2022-12-29T00:02:30;99341.03;;;10.87;57.34
49585;BME280;35491;49.142;9.210;2022-12-29T00:03:35;99342.34;;;10.91;57.09
49585;BME280;35491;49.142;9.210;2022-12-29T00:04:37;99347.56;;;10.93;57.15
49585;BME280;35491;49.142;9.210;2022-12-29T00:05:44;99338.03;;;10.99;57.09
49585;BME280;35491;49.142;9.210;2022-12-29T00:06:47;99346.19;;;10.97;56.79
49585;BME280;35491;49.142;9.210;2022-12-29T00:07:54;99335.38;;;10.99;56.79
49585;BME280;35491;49.142;9.210;2022-12-29T00:08:58;99337.88;;;11.00;56.83
49585;BME280;35491;49.142;9.210;2022-12-29T00:10:03;99325.19;;;11.11;56.80
49585;BME280;35491;49.142;9.210;2022-12-29T00:11:10;99333.38;;;11.17;56.53
49585;BME280;35491;49.142;9.210;2022-12-29T00:12:14;99330.34;;;11.20;56.15
49585;BME280;35491;49.142;9.210;2022-12-29T00:13:18;99325.00;;;11.20;56.33
49585;BME280;35491;49.142;9.210;2022-12-29T00:14:35;99323.50;;;11.26;56.25
49585;BME280;35491;49.142;9.210;2022-12-29T00:15:52;99320.50;;;11.21;56.38
49585;BME280;35491;49.142;9.210;2022-12-29T00:16:54;99323.84;;;11.23;56.06
49585;BME280;35491;49.142;9.210;2022-12-29T00:17:59;99318.66;;;11.21;56.19
49585;BME280;35491;49.142;9.210;2022-12-29T00:19:06;99320.19;;;11.24;56.03
49585;BME280;35491;49.142;9.210;2022-12-29T00:20:36;99316.47;;;11.25;56.06
49585;BME280;35491;49.142;9.210;2022-12-29T00:21:53;99305.94;;;11.32;55.85
49585;BME280;35491;49.142;9.210;2022-12-29T00:23:10;99306.28;;;11.20;56.23
49585;BME280;35491;49.142;9.210;2022-12-29T00:24:30;99313.47;;;11.20;55.87
49585;BME280;35491;49.142;9.210;2022-12-29T00:25:50;99307.81;;;11.23;55.87
49585;BME280;35491;49.142;9.210;2022-12-29T00:27:12;99312.47;;;11.21;55.85
49585;BME280;35491;49.142;9.210;2022-12-29T00:28:29;99311.13;;;11.17;56.15
49585;BME280;35491;49.142;9.210;2022-12-29T00:29:48;99304.78;;;11.18;56.06
49585;BME280;35491;49.142;9.210;2022-12-29T00:31:08;99308.13;;;11.12;56.46
49585;BME280;35491;49.142;9.210;2022-12-29T00:32:28;99314.47;;;11.11;56.26
49585;BME280;35491;49.142;9.210;2022-12-29T00:33:44;99317.16;;;11.11;56.30
49585;BME280;35491;49.142;9.210;2022-12-29T00:35:01;99311.31;;;11.15;56.19
49585;BME280;35491;49.142;9.210;2022-12-29T00:36:20;99312.63;;;11.19;56.32
49585;BME280;35491;49.142;9.210;2022-12-29T00:37:25;99318.16;;;11.26;56.07
49585;BME280;35491;49.142;9.210;2022-12-29T00:38:52;99309.63;;;11.22;56.09
49585;BME280;35491;49.142;9.210;2022-12-29T00:40:10;99312.81;;;11.18;56.50
49585;BME280;35491;49.142;9.210;2022-12-29T00:41:27;99313.78;;;11.25;56.35
49585;BME280;35491;49.142;9.210;2022-12-29T00:42:48;99310.81;;;11.12;56.77
49585;BME280;35491;49.142;9.210;2022-12-29T00:44:19;99311.44;;;11.05;56.54
49585;BME280;35491;49.142;9.210;2022-12-29T00:45:23;99309.44;;;11.07;56.57
49585;BME280;35491;49.142;9.210;2022-12-29T00:46:25;99310.81;;;11.03;56.81
49585;BME280;35491;49.142;9.210;2022-12-29T00:47:45;99313.13;;;11.06;56.91
49585;BME280;35491;49.142;9.210;2022-12-29T00:50:55;99323.50;;;10.93;57.05
49585;BME280;35491;49.142;9.210;2022-12-29T00:52:02;99326.31;;;10.91;57.06
49585;BME280;35491;49.142;9.210;2022-12-29T00:53:07;99324.97;;;10.87;57.35
49585;BME280;35491;49.142;9.210;2022-12-29T00:54:12;99324.50;;;11.00;57.03
49585;BME280;35491;49.142;9.210;2022-12-29T00:55:16;99321.50;;;11.03;57.23
49585;BME280;35491;49.142;9.210;2022-12-29T00:56:18;99323.50;;;11.18;56.90
49585;BME280;35491;49.142;9.210;2022-12-29T00:57:23;99319.13;;;11.00;56.81
49585;BME280;35491;49.142;9.210;2022-12-29T00:58:30;99329.34;;;10.97;57.10
49585;BME280;35491;49.142;9.210;2022-12-29T00:59:40;99334.00;;;10.86;57.32
49585;BME280;35491;49.142;9.210;2022-12-29T01:01:01;99334.50;;;10.82;57.61
49585;BME280;35491;49.142;9.210;2022-12-29T01:02:04;99325.97;;;10.78;57.75
49585;BME280;35491;49.142;9.210;2022-12-29T01:03:08;99336.16;;;10.74;57.73
49585;BME280;35491;49.142;9.210;2022-12-29T01:04:11;99338.84;;;10.83;57.60
49585;BME280;35491;49.142;9.210;2022-12-29T01:05:16;99347.84;;;10.82;57.98
49585;BME280;35491;49.142;9.210;2022-12-29T01:06:21;99341.53;;;10.91;57.51
49585;BME280;35491;49.142;9.210;2022-12-29T01:07:26;99341.84;;;10.80;58.05
49585;BME280;35491;49.142;9.210;2022-12-29T01:08:28;99343.53;;;10.89;57.73
49585;BME280;35491;49.142;9.210;2022-12-29T01:09:32;99350.22;;;10.85;57.91
49585;BME280;35491;49.142;9.210;2022-12-29T01:10:58;99351.41;;;10.99;57.67
49585;BME280;35491;49.142;9.210;2022-12-29T01:12:02;99361.22;;;10.82;58.14
49585;BME280;35491;49.142;9.210;2022-12-29T01:13:08;99362.03;;;10.74;58.13
49585;BME280;35491;49.142;9.210;2022-12-29T01:14:20;99357.56;;;10.83;57.80
49585;BME280;35491;49.142;9.210;2022-12-29T01:15:22;99366.25;;;10.76;58.21
49585;BME280;35491;49.142;9.210;2022-12-29T01:16:26;99368.91;;;10.76;58.41
49585;BME280;35491;49.142;9.210;2022-12-29T01:17:28;99359.56;;;10.81;58.08
49585;BME280;35491;49.142;9.210;2022-12-29T01:18:33;99361.91;;;10.84;58.11
49585;BME280;35491;49.142;9.210;2022-12-29T01:19:39;99363.00;;;10.65;58.53
49585;BME280;35491;49.142;9.210;2022-12-29T01:20:43;99380.56;;;10.67;58.48
49585;BME280;35491;49.142;9.210;2022-12-29T01:21:45;99372.72;;;10.74;58.24
49585;BME280;35491;49.142;9.210;2022-12-29T01:22:50;99370.91;;;10.74;58.04
49585;BME280;35491;49.142;9.210;2022-12-29T01:23:52;99364.28;;;10.95;57.78
49585;BME280;35491;49.142;9.210;2022-12-29T01:24:56;99373.56;;;10.74;58.29
49585;BME280;35491;49.142;9.210;2022-12-29T01:26:08;99374.38;;;10.67;58.51
49585;BME280;35491;49.142;9.210;2022-12-29T01:27:13;99372.91;;;10.81;58.56
49585;BME280;35491;49.142;9.210;2022-12-29T01:28:15;99379.63;;;10.85;58.34
49585;BME280;35491;49.142;9.210;2022-12-29T01:29:23;99373.78;;;10.89;58.38
49585;BME280;35491;49.142;9.210;2022-12-29T01:30:26;99362.09;;;10.90;58.75
49585;BME280;35491;49.142;9.210;2022-12-29T01:31:31;99369.06;;;10.83;58.72
49585;BME280;35491;49.142;9.210;2022-12-29T01:32:33;99374.41;;;10.83;59.20
49585;BME280;35491;49.142;9.210;2022-12-29T01:33:37;99375.75;;;10.71;59.56
49585;BME280;35491;49.142;9.210;2022-12-29T01:34:39;99358.88;;;10.87;59.38
49585;BME280;35491;49.142;9.210;2022-12-29T01:35:46;99375.25;;;10.75;60.01
49585;BME280;35491;49.142;9.210;2022-12-29T01:36:50;99374.56;;;10.73;59.74
49585;BME280;35491;49.142;9.210;2022-12-29T01:37:56;99374.75;;;10.72;60.35
49585;BME280;35491;49.142;9.210;2022-12-29T01:38:59;99379.06;;;10.73;60.47
49585;BME280;35491;49.142;9.210;2022-12-29T01:40:04;99366.25;;;10.85;59.95
49585;BME280;35491;49.142;9.210;2022-12-29T01:41:08;99372.31;;;10.95;59.94
49585;BME280;35491;49.142;9.210;2022-12-29T01:43:53;99374.56;;;10.73;60.75
49585;BME280;35491;49.142;9.210;2022-12-29T01:45:00;99369.94;;;10.84;60.43
49585;BME280;35491;49.142;9.210;2022-12-29T01:46:13;99378.25;;;10.81;60.83
49585;BME280;35491;49.142;9.210;2022-12-29T01:47:33;99380.59;;;10.75;61.42
49585;BME280;35491;49.142;9.210;2022-12-29T01:49:20;99379.59;;;10.76;61.13
49585;BME280;35491;49.142;9.210;2022-12-29T01:50:27;99362.38;;;10.71;61.45
49585;BME280;35491;49.142;9.210;2022-12-29T01:51:32;99362.41;;;10.79;61.25
49585;BME280;35491;49.142;9.210;2022-12-29T01:52:41;99367.44;;;10.90;61.05
49585;BME280;35491;49.142;9.210;2022-12-29T01:53:45;99364.38;;;10.69;61.98
49585;BME280;35491;49.142;9.210;2022-12-29T01:54:52;99361.88;;;10.75;61.92
49585;BME280;35491;49.142;9.210;2022-12-29T01:55:59;99361.56;;;10.87;61.57
49585;BME280;35491;49.142;9.210;2022-12-29T01:57:08;99356.22;;;10.87;61.43
49585;BME280;35491;49.142;9.210;2022-12-29T01:58:13;99354.00;;;10.74;61.71
49585;BME280;35491;49.142;9.210;2022-12-29T01:59:22;99352.53;;;10.80;62.00
49585;BME280;35491;49.142;9.210;2022-12-29T02:00:27;99351.53;;;10.89;61.62
49585;BME280;35491;49.142;9.210;2022-12-29T02:01:31;99351.53;;;10.81;61.84
49585;BME280;35491;49.142;9.210;2022-12-29T02:02:35;99352.72;;;10.86;62.13
49585;BME280;35491;49.142;9.210;2022-12-29T02:03:39;99352.53;;;10.88;62.01
49585;BME280;35491;49.142;9.210;2022-12-29T02:04:42;99349.88;;;10.96;61.86
49585;BME280;35491;49.142;9.210;2022-12-29T02:05:51;99345.06;;;11.00;61.59
49585;BME280;35491;49.142;9.210;2022-12-29T02:06:58;99346.19;;;10.97;61.44
49585;BME280;35491;49.142;9.210;2022-12-29T02:08:05;99342.88;;;10.95;61.71
49585;BME280;35491;49.142;9.210;2022-12-29T02:09:07;99343.19;;;10.92;61.44
49585;BME280;35491;49.142;9.210;2022-12-29T02:10:11;99342.22;;;10.93;61.77
49585;BME280;35491;49.142;9.210;2022-12-29T02:11:14;99336.47;;;10.80;62.26
49585;BME280;35491;49.142;9.210;2022-12-29T02:12:20;99337.84;;;10.92;61.69
49585;BME280;35491;49.142;9.210;2022-12-29T02:13:23;99336.38;;;10.98;61.24
49585;BME280;35491;49.142;9.210;2022-12-29T02:14:28;99331.84;;;11.06;61.21
49585;BME280;35491;49.142;9.210;2022-12-29T02:15:37;99339.53;;;11.10;61.03
49585;BME280;35491;49.142;9.210;2022-12-29T02:16:57;99328.84;;;11.01;61.31
49585;BME280;35491;49.142;9.210;2022-12-29T02:18:12;99333.69;;;10.89;61.85
49585;BME280;35491;49.142;9.210;2022-12-29T02:22:27;99336.00;;;10.84;61.54
49585;BME280;35491;49.142;9.210;2022-12-29T02:23:59;99332.81;;;10.89;61.45
49585;BME280;35491;49.142;9.210;2022-12-29T02:27:07;99329.50;;;10.95;61.09
49585;BME280;35491;49.142;9.210;2022-12-29T02:30:13;99331.31;;;10.86;61.37
49585;BME280;35491;49.142;9.210;2022-12-29T02:31:23;99329.84;;;11.00;61.01
49585;BME280;35491;49.142;9.210;2022-12-29T02:32:38;99323.69;;;11.08;60.66
49585;BME280;35491;49.142;9.210;2022-12-29T02:33:52;99325.00;;;11.04;61.15
49585;BME280;35491;49.142;9.210;2022-12-29T02:35:07;99317.16;;;11.02;61.16
49585;BME280;35491;49.142;9.210;2022-12-29T02:36:18;99322.69;;;11.09;61.04
49585;BME280;35491;49.142;9.210;2022-12-29T02:37:32;99314.97;;;11.06;61.04
49585;BME280;35491;49.142;9.210;2022-12-29T02:38:48;99315.47;;;11.01;60.77
49585;BME280;35491;49.142;9.210;2022-12-29T02:40:03;99318.97;;;11.10;60.52
49585;BME280;35491;49.142;9.210;2022-12-29T02:41:10;99313.78;;;11.00;61.09
49585;BME280;35491;49.142;9.210;2022-12-29T02:42:24;99317.16;;;11.11;60.44
49585;BME280;35491;49.142;9.210;2022-12-29T02:43:38;99318.16;;;11.10;60.41
49585;BME280;35491;49.142;9.210;2022-12-29T02:44:49;99313.13;;;10.98;60.98
49585;BME280;35491;49.142;9.210;2022-12-29T02:45:58;99314.13;;;10.97;60.83
49585;BME280;35491;49.142;9.210;2022-12-29T02:47:11;99308.44;;;10.92;61.16
49585;BME280;35491;49.142;9.210;2022-12-29T02:48:20;99312.09;;;10.91;61.08
49585;BME280;35491;49.142;9.210;2022-12-29T02:49:31;99308.94;;;10.96;61.04
49585;BME280;35491;49.142;9.210;2022-12-29T02:50:37;99311.78;;;11.02;60.87
49585;BME280;35491;49.142;9.210;2022-12-29T02:51:48;99309.13;;;10.94;60.86
49585;BME280;35491;49.142;9.210;2022-12-29T02:52:57;99318.97;;;10.93;60.84
49585;BME280;35491;49.142;9.210;2022-12-29T02:54:03;99317.13;;;10.94;61.05
49585;BME280;35491;49.142;9.210;2022-12-29T02:55:20;99315.97;;;10.88;61.38
49585;BME280;35491;49.142;9.210;2022-12-29T02:56:21;99318.47;;;10.90;61.30
49585;BME280;35491;49.142;9.210;2022-12-29T02:57:32;99316.78;;;10.89;60.93
49585;BME280;35491;49.142;9.210;2022-12-29T02:58:36;99319.31;;;10.90;61.37
49585;BME280;35491;49.142;9.210;2022-12-29T02:59:38;99311.59;;;10.79;61.24
49585;BME280;35491;49.142;9.210;2022-12-29T03:00:54;99314.09;;;10.81;61.65
49585;BME280;35491;49.142;9.210;2022-12-29T03:02:21;99304.91;;;10.83;61.51
49585;BME280;35491;49.142;9.210;2022-12-29T03:03:40;99314.09;;;10.81;61.84
49585;BME280;35491;49.142;9.210;2022-12-29T03:04:56;99307.06;;;10.80;61.87
49585;BME280;35491;49.142;9.210;2022-12-29T03:06:16;99309.72;;;10.71;61.90
49585;BME280;35491;49.142;9.210;2022-12-29T03:07:24;99297.38;;;10.70;62.13
49585;BME280;35491;49.142;9.210;2022-12-29T03:08:38;99298.34;;;10.61;62.37
49585;BME280;35491;49.142;9.210;2022-12-29T03:09:46;99304.19;;;10.65;62.19
49585;BME280;35491;49.142;9.210;2022-12-29T03:10:59;99303.06;;;10.67;62.43
49585;BME280;35491;49.142;9.210;2022-12-29T03:12:10;99301.69;;;10.63;62.40
49585;BME280;35491;49.142;9.210;2022-12-29T03:13:25;99295.69;;;10.69;62.26
49585;BME280;35491;49.142;9.210;2022-12-29T03:14:54;99290.34;;;10.69;62.05
49585;BME280;35491;49.142;9.210;2022-12-29T03:16:20;99291.81;;;10.55;62.39
49585;BME280;35491;49.142;9.210;2022-12-29T03:17:29;99291.47;;;10.50;62.63
49585;BME280;35491;49.142;9.210;2022-12-29T03:18:41;99284.66;;;10.56;62.49
49585;BME280;35491;49.142;9.210;2022-12-29T03:19:48;99288.94;;;10.49;62.72
49585;BME280;35491;49.142;9.210;2022-12-29T03:20:54;99283.28;;;10.52;62.55
49585;BME280;35491;49.142;9.210;2022-12-29T03:22:01;99280.31;;;10.55;62.42
49585;BME280;35491;49.142;9.210;2022-12-29T03:23:20;99283.66;;;10.65;62.29
49585;BME280;35491;49.142;9.210;2022-12-29T03:24:28;99286.63;;;10.54;62.60
49585;BME280;35491;49.142;9.210;2022-12-29T03:25:33;99286.13;;;10.50;62.73
49585;BME280;35491;49.142;9.210;2022-12-29T03:26:40;99286.63;;;10.54;62.23
49585;BME280;35491;49.142;9.210;2022-12-29T03:27:45;99289.31;;;10.54;62.48
49585;BME280;35491;49.142;9.210;2022-12-29T03:28:53;99289.97;;;10.48;62.78
49585;BME280;35491;49.142;9.210;2022-12-29T03:29:59;99291.28;;;10.43;62.77
49585;BME280;35491;49.142;9.210;2022-12-29T03:31:04;99288.31;;;10.55;62.51
49585;BME280;35491;49.142;9.210;2022-12-29T03:32:09;99284.94;;;10.44;62.61
49585;BME280;35491;49.142;9.210;2022-12-29T03:33:21;99292.59;;;10.39;62.92
49585;BME280;35491;49.142;9.210;2022-12-29T03:34:27;99285.13;;;10.43;62.77
49585;BME280;35491;49.142;9.210;2022-12-29T03:35:33;99277.63;;;10.55;62.59
49585;BME280;35491;49.142;9.210;2022-12-29T03:36:42;99281.00;;;10.73;61.77
49585;BME280;35491;49.142;9.210;2022-12-29T03:37:50;99282.81;;;10.56;62.58
49585;BME280;35491;49.142;9.210;2022-12-29T03:38:59;99278.63;;;10.62;62.33
49585;BME280;35491;49.142;9.210;2022-12-29T03:40:04;99280.63;;;10.52;63.05
49585;BME280;35491;49.142;9.210;2022-12-29T03:41:11;99280.97;;;10.57;63.12
49585;BME280;35491;49.142;9.210;2022-12-29T03:42:16;99283.00;;;10.71;62.51
49585;BME280;35491;49.142;9.210;2022-12-29T03:43:22;99274.16;;;10.79;62.52
49585;BME280;35491;49.142;9.210;2022-12-29T03:44:32;99284.34;;;10.75;62.56
49585;BME280;35491;49.142;9.210;2022-12-29T03:45:37;99287.81;;;10.59;63.19
49585;BME280;35491;49.142;9.210;2022-12-29T03:46:39;99286.16;;;10.58;63.43
49585;BME280;35491;49.142;9.210;2022-12-29T03:47:44;99279.63;;;10.53;63.46
49585;BME280;35491;49.142;9.210;2022-12-29T03:48:48;99277.44;;;10.48;63.39
49585;BME280;35491;49.142;9.210;2022-12-29T03:49:53;99272.81;;;10.67;63.08
49585;BME280;35491;49.142;9.210;2022-12-29T03:50:55;99272.78;;;10.58;63.24
49585;BME280;35491;49.142;9.210;2022-12-29T03:51:59;99282.31;;;10.61;63.04
49585;BME280;35491;49.142;9.210;2022-12-29T03:53:01;99279.44;;;10.54;63.37
49585;BME280;35491;49.142;9.210;2022-12-29T03:54:06;99271.91;;;10.50;63.82
49585;BME280;35491;49.142;9.210;2022-12-29T03:55:08;99272.78;;;10.50;63.86
49585;BME280;35491;49.142;9.210;2022-12-29T03:56:12;99269.28;;;10.58;63.48
49585;BME280;35491;49.142;9.210;2022-12-29T03:57:14;99278.13;;;10.58;63.55
49585;BME280;35491;49.142;9.210;2022-12-29T03:58:18;99275.59;;;10.49;63.48
49585;BME280;35491;49.142;9.210;2022-12-29T03:59:20;99281.41;;;10.44;63.67
49585;BME280;35491;49.142;9.210;2022-12-29T04:00:24;99276.06;;;10.44;63.93
49585;BME280;35491;49.142;9.210;2022-12-29T04:01:26;99272.59;;;10.52;63.26
49585;BME280;35491;49.142;9.210;2022-12-29T04:02:30;99274.28;;;10.61;63.37
49585;BME280;35491;49.142;9.210;2022-12-29T04:03:32;99274.59;;;10.50;63.36
49585;BME280;35491;49.142;9.210;2022-12-29T04:04:39;99274.59;;;10.50;63.42
49585;BME280;35491;49.142;9.210;2022-12-29T04:05:40;99270.78;;;10.60;63.31
49585;BME280;35491;49.142;9.210;2022-12-29T04:06:45;99273.28;;;10.62;62.92
49585;BME280;35491;49.142;9.210;2022-12-29T04:07:46;99282.66;;;10.58;63.13
49585;BME280;35491;49.142;9.210;2022-12-29T04:08:51;99280.00;;;10.66;63.00
49585;BME280;35491;49.142;9.210;2022-12-29T04:09:52;99275.16;;;10.70;63.05
49585;BME280;35491;49.142;9.210;2022-12-29T04:10:57;99288.53;;;10.78;62.75
49585;BME280;35491;49.142;9.210;2022-12-29T04:11:58;99280.16;;;10.73;62.82
49585;BME280;35491;49.142;9.210;2022-12-29T04:13:02;99274.31;;;10.77;62.79
49585;BME280;35491;49.142;9.210;2022-12-29T04:14:04;99275.66;;;10.90;62.42
49585;BME280;35491;49.142;9.210;2022-12-29T04:15:09;99274.66;;;10.91;62.12
49585;BME280;35491;49.142;9.210;2022-12-29T04:16:11;99271.81;;;10.92;62.15
49585;BME280;35491;49.142;9.210;2022-12-29T04:17:15;99265.34;;;10.95;62.26
49585;BME280;35491;49.142;9.210;2022-12-29T04:18:16;99259.44;;;10.91;62.13
49585;BME280;35491;49.142;9.210;2022-12-29T04:19:20;99259.97;;;11.03;61.82
49585;BME280;35491;49.142;9.210;2022-12-29T04:20:24;99263.81;;;11.01;61.83
49585;BME280;35491;49.142;9.210;2022-12-29T04:21:41;99261.97;;;11.01;61.82
49585;BME280;35491;49.142;9.210;2022-12-29T04:22:45;99263.31;;;11.05;61.42
49585;BME280;35491;49.142;9.210;2022-12-29T04:23:46;99262.97;;;11.08;61.17
49585;BME280;35491;49.142;9.210;2022-12-29T04:24:51;99250.59;;;11.07;61.12
49585;BME280;35491;49.142;9.210;2022-12-29T04:25:52;99248.28;;;11.13;61.25
49585;BME280;35491;49.142;9.210;2022-12-29T04:26:56;99244.09;;;11.18;60.91
49585;BME280;35491;49.142;9.210;2022-12-29T04:27:58;99243.75;;;11.13;60.92
49585;BME280;35491;49.142;9.210;2022-12-29T04:29:02;99243.59;;;11.23;60.80
49585;BME280;35491;49.142;9.210;2022-12-29T04:30:05;99232.53;;;11.26;60.66
49585;BME280;35491;49.142;9.210;2022-12-29T04:31:09;99227.84;;;11.28;60.18
49585;BME280;35491;49.142;9.210;2022-12-29T04:32:10;99222.00;;;11.33;59.89
49585;BME280;35491;49.142;9.210;2022-12-29T04:33:14;99233.03;;;11.38;60.01
49585;BME280;35491;49.142;9.210;2022-12-29T04:34:16;99231.50;;;11.35;59.75
49585;BME280;35491;49.142;9.210;2022-12-29T04:35:20;99221.97;;;11.41;59.66
49585;BME280;35491;49.142;9.210;2022-12-29T04:36:24;99226.31;;;11.42;59.79
49585;BME280;35491;49.142;9.210;2022-12-29T04:37:28;99215.63;;;11.42;59.81
49585;BME280;35491;49.142;9.210;2022-12-29T04:38:30;99209.78;;;11.38;59.65
49585;BME280;35491;49.142;9.210;2022-12-29T04:39:34;99213.28;;;11.47;59.46
49585;BME280;35491;49.142;9.210;2022-12-29T04:40:37;99218.13;;;11.44;59.18
49585;BME280;35491;49.142;9.210;2022-12-29T04:41:42;99216.09;;;11.46;59.31
49585;BME280;35491;49.142;9.210;2022-12-29T04:42:46;99228.84;;;11.35;59.27
49585;BME280;35491;49.142;9.210;2022-12-29T04:43:47;99229.34;;;11.31;59.55
49585;BME280;35491;49.142;9.210;2022-12-29T04:44:51;99236.88;;;11.27;59.74
49585;BME280;35491;49.142;9.210;2022-12-29T04:45:53;99233.88;;;11.30;59.89
49585;BME280;35491;49.142;9.210;2022-12-29T04:46:57;99225.16;;;11.36;59.65
49585;BME280;35491;49.142;9.210;2022-12-29T04:47:58;99230.19;;;11.31;59.92
49585;BME280;35491;49.142;9.210;2022-12-29T04:49:02;99230.19;;;11.15;59.92
49585;BME280;35491;49.142;9.210;2022-12-29T04:50:09;99233.41;;;11.18;60.23
49585;BME280;35491;49.142;9.210;2022-12-29T04:51:14;99229.03;;;11.26;59.57
49585;BME280;35491;49.142;9.210;2022-12-29T04:52:18;99230.38;;;11.21;59.66
49585;BME280;35491;49.142;9.210;2022-12-29T04:53:22;99233.72;;;11.23;59.73
49585;BME280;35491;49.142;9.210;2022-12-29T04:54:23;99224.53;;;11.18;59.72
49585;BME280;35491;49.142;9.210;2022-12-29T04:55:28;99223.53;;;11.11;59.73
49585;BME280;35491;49.142;9.210;2022-12-29T04:56:29;99224.03;;;11.14;60.04
49585;BME280;35491;49.142;9.210;2022-12-29T04:57:33;99221.53;;;11.13;59.79
49585;BME280;35491;49.142;9.210;2022-12-29T04:58:35;99215.81;;;11.16;59.59
49585;BME280;35491;49.142;9.210;2022-12-29T04:59:39;99217.19;;;11.12;59.91
49585;BME280;35491;49.142;9.210;2022-12-29T05:00:40;99231.06;;;11.07;59.73
49585;BME280;35491;49.142;9.210;2022-12-29T05:01:44;99222.69;;;11.10;59.54
49585;BME280;35491;49.142;9.210;2022-12-29T05:02:46;99217.50;;;11.17;59.54
49585;BME280;35491;49.142;9.210;2022-12-29T05:03:50;99223.19;;;11.14;59.63
49585;BME280;35491;49.142;9.210;2022-12-29T05:04:52;99229.53;;;11.21;59.45
49585;BME280;35491;49.142;9.210;2022-12-29T05:05:56;99222.69;;;11.10;59.72
49585;BME280;35491;49.142;9.210;2022-12-29T05:06:58;99232.88;;;11.06;60.02
49585;BME280;35491;49.142;9.210;2022-12-29T05:08:05;99236.06;;;11.02;60.19
49585;BME280;35491;49.142;9.210;2022-12-29T05:09:07;99231.72;;;11.01;60.02
49585;BME280;35491;49.142;9.210;2022-12-29T05:10:11;99227.38;;;11.00;59.94
49585;BME280;35491;49.142;9.210;2022-12-29T05:11:13;99220.88;;;10.94;60.40
49585;BME280;35491;49.142;9.210;2022-12-29T05:12:17;99221.50;;;10.96;60.40
49585;BME280;35491;49.142;9.210;2022-12-29T05:13:19;99230.53;;;10.87;60.50
49585;BME280;35491;49.142;9.210;2022-12-29T05:14:23;99239.91;;;10.83;60.64
49585;BME280;35491;49.142;9.210;2022-12-29T05:15:29;99238.56;;;10.87;60.75
49585;BME280;35491;49.142;9.210;2022-12-29T05:16:42;99230.56;;;10.95;60.50
49585;BME280;35491;49.142;9.210;2022-12-29T05:17:52;99235.06;;;10.86;60.66
49585;BME280;35491;49.142;9.210;2022-12-29T05:19:06;99241.22;;;10.79;60.79
49585;BME280;35491;49.142;9.210;2022-12-29T05:20:11;99237.91;;;10.85;60.68
49585;BME280;35491;49.142;9.210;2022-12-29T05:21:16;99235.06;;;10.78;60.91
49585;BME280;35491;49.142;9.210;2022-12-29T05:22:18;99239.06;;;10.74;61.27
49585;BME280;35491;49.142;9.210;2022-12-29T05:23:25;99235.88;;;10.79;61.19
49585;BME280;35491;49.142;9.210;2022-12-29T05:24:29;99233.56;;;10.84;60.74
49585;BME280;35491;49.142;9.210;2022-12-29T05:25:31;99226.88;;;10.80;61.14
49585;BME280;35491;49.142;9.210;2022-12-29T05:26:35;99236.25;;;10.92;60.62
49585;BME280;35491;49.142;9.210;2022-12-29T05:27:37;99238.91;;;10.92;60.67
49585;BME280;35491;49.142;9.210;2022-12-29T05:28:41;99228.53;;;11.05;60.65
49585;BME280;35491;49.142;9.210;2022-12-29T05:29:42;99236.41;;;10.99;60.50
49585;BME280;35491;49.142;9.210;2022-12-29T05:30:48;99234.75;;;10.89;60.90
49585;BME280;35491;49.142;9.210;2022-12-29T05:31:49;99234.56;;;10.91;60.73
49585;BME280;35491;49.142;9.210;2022-12-29T05:32:53;99240.41;;;10.95;60.54
49585;BME280;35491;49.142;9.210;2022-12-29T05:33:55;99238.41;;;10.97;60.76
49585;BME280;35491;49.142;9.210;2022-12-29T05:34:59;99240.22;;;10.96;60.53
49585;BME280;35491;49.142;9.210;2022-12-29T05:36:04;99237.91;;;10.85;60.99
49585;BME280;35491;49.142;9.210;2022-12-29T05:37:08;99243.25;;;10.93;60.80
49585;BME280;35491;49.142;9.210;2022-12-29T05:38:09;99241.41;;;10.93;60.85
49585;BME280;35491;49.142;9.210;2022-12-29T05:39:16;99234.38;;;11.01;60.61
49585;BME280;35491;49.142;9.210;2022-12-29T05:40:18;99236.22;;;11.08;60.67
49585;BME280;35491;49.142;9.210;2022-12-29T05:41:22;99249.94;;;11.05;60.73
49585;BME280;35491;49.142;9.210;2022-12-29T05:42:23;99244.06;;;11.10;60.42
49585;BME280;35491;49.142;9.210;2022-12-29T05:43:27;99235.06;;;11.11;60.38
49585;BME280;35491;49.142;9.210;2022-12-29T05:44:29;99238.72;;;11.10;60.48
49585;BME280;35491;49.142;9.210;2022-12-29T05:45:33;99237.72;;;11.19;60.18
49585;BME280;35491;49.142;9.210;2022-12-29T05:46:34;99231.56;;;11.02;60.66
49585;BME280;35491;49.142;9.210;2022-12-29T05:47:38;99241.06;;;11.13;60.54
49585;BME280;35491;49.142;9.210;2022-12-29T05:48:40;99233.22;;;11.20;60.45
49585;BME280;35491;49.142;9.210;2022-12-29T05:49:44;99228.53;;;11.22;60.28
49585;BME280;35491;49.142;9.210;2022-12-29T05:50:47;99240.06;;;11.22;60.08
49585;BME280;35491;49.142;9.210;2022-12-29T05:51:51;99230.22;;;11.23;60.06
49585;BME280;35491;49.142;9.210;2022-12-29T05:52:52;99228.19;;;11.33;59.88
49585;BME280;35491;49.142;9.210;2022-12-29T05:53:57;99236.56;;;11.22;60.34
49585;BME280;35491;49.142;9.210;2022-12-29T05:55:01;99224.84;;;11.31;60.08
49585;BME280;35491;49.142;9.210;2022-12-29T05:56:06;99227.84;;;11.28;60.26
49585;BME280;35491;49.142;9.210;2022-12-29T05:57:08;99224.16;;;11.37;60.07
49585;BME280;35491;49.142;9.210;2022-12-29T05:58:12;99215.13;;;11.38;60.23
49585;BME280;35491;49.142;9.210;2022-12-29T05:59:14;99219.63;;;11.46;59.87
49585;BME280;35491;49.142;9.210;2022-12-29T06:00:18;99214.78;;;11.50;59.76
49585;BME280;35491;49.142;9.210;2022-12-29T06:01:20;99221.13;;;11.49;59.76
49585;BME280;35491;49.142;9.210;2022-12-29T06:02:24;99209.72;;;11.55;59.68
49585;BME280;35491;49.142;9.210;2022-12-29T06:03:26;99212.41;;;11.55;59.72
49585;BME280;35491;49.142;9.210;2022-12-29T06:04:30;99214.41;;;11.53;59.75
49585;BME280;35491;49.142;9.210;2022-12-29T06:05:32;99219.78;;;11.61;59.87
49585;BME280;35491;49.142;9.210;2022-12-29T06:06:36;99216.69;;;11.73;59.63